sensor_id;sensor_type;location;lat;lon;timestamp;P1;durP1;ratioP1;P2;durP2;ratioP2
23676;SDS011;31493;49.058;12.190;2023-08-06T00:01:29;8.85;;;7.85;;
23676;SDS011;31493;49.058;12.190;2023-08-06T00:03:58;10.13;;;8.20;;
23676;SDS011;31493;49.058;12.190;2023-08-06T00:06:26;10.82;;;8.57;;
23676;SDS011;31493;49.058;12.190;2023-08-06T00:08:53;11.35;;;10.07;;
23676;SDS011;31493;49.058;12.190;2023-08-06T00:11:20;13.82;;;11.57;;
23676;SDS011;31493;49.058;12.190;2023-08-06T00:13:47;16.65;;;11.77;;
23676;SDS011;31493;49.058;12.190;2023-08-06T00:16:14;12.82;;;11.45;;
23676;SDS011;31493;49.058;12.190;2023-08-06T00:18:41;13.57;;;11.90;;
23676;SDS011;31493;49.058;12.190;2023-08-06T00:21:10;14.88;;;12.70;;
23676;SDS011;31493;49.058;12.190;2023-08-06T00:23:38;16.65;;;13.30;;
23676;SDS011;31493;49.058;12.190;2023-08-06T00:26:05;14.77;;;13.05;;
23676;SDS011;31493;49.058;12.190;2023-08-06T00:28:32;15.60;;;12.65;;
23676;SDS011;31493;49.058;12.190;2023-08-06T00:30:59;14.13;;;12.43;;
23676;SDS011;31493;49.058;12.190;2023-08-06T00:33:26;17.05;;;11.52;;
23676;SDS011;31493;49.058;12.190;2023-08-06T00:35:53;14.98;;;11.13;;
23676;SDS011;31493;49.058;12.190;2023-08-06T00:38:22;12.48;;;10.90;;
23676;SDS011;31493;49.058;12.190;2023-08-06T00:40:48;13.57;;;11.68;;
23676;SDS011;31493;49.058;12.190;2023-08-06T00:43:15;13.18;;;11.88;;
23676;SDS011;31493;49.058;12.190;2023-08-06T00:45:43;15.23;;;12.43;;
23676;SDS011;31493;49.058;12.190;2023-08-06T00:48:10;14.50;;;12.07;;
23676;SDS011;31493;49.058;12.190;2023-08-06T00:50:37;14.80;;;12.48;;
23676;SDS011;31493;49.058;12.190;2023-08-06T00:53:05;15.38;;;13.38;;
23676;SDS011;31493;49.058;12.190;2023-08-06T00:55:33;14.93;;;13.32;;
23676;SDS011;31493;49.058;12.190;2023-08-06T00:58:01;17.83;;;13.82;;
23676;SDS011;31493;49.058;12.190;2023-08-06T01:00:29;17.05;;;14.02;;
23676;SDS011;31493;49.058;12.190;2023-08-06T01:02:56;17.67;;;15.88;;
23676;SDS011;31493;49.058;12.190;2023-08-06T01:05:23;18.50;;;16.50;;
23676;SDS011;31493;49.058;12.190;2023-08-06T01:07:52;19.05;;;16.60;;
23676;SDS011;31493;49.058;12.190;2023-08-06T01:10:38;19.52;;;15.68;;
23676;SDS011;31493;49.058;12.190;2023-08-06T01:13:16;17.55;;;15.18;;
23676;SDS011;31493;49.058;12.190;2023-08-06T01:15:51;16.83;;;15.13;;
23676;SDS011;31493;49.058;12.190;2023-08-06T01:18:23;18.40;;;16.40;;
23676;SDS011;31493;49.058;12.190;2023-08-06T01:20:51;19.48;;;16.17;;
23676;SDS011;31493;49.058;12.190;2023-08-06T01:23:19;17.98;;;16.08;;
23676;SDS011;31493;49.058;12.190;2023-08-06T01:25:48;17.23;;;15.45;;
23676;SDS011;31493;49.058;12.190;2023-08-06T01:28:22;16.95;;;15.13;;
23676;SDS011;31493;49.058;12.190;2023-08-06T01:30:54;17.75;;;15.85;;
23676;SDS011;31493;49.058;12.190;2023-08-06T01:33:24;17.58;;;15.75;;
23676;SDS011;31493;49.058;12.190;2023-08-06T01:35:56;16.88;;;15.07;;
23676;SDS011;31493;49.058;12.190;2023-08-06T01:38:24;18.58;;;15.75;;
23676;SDS011;31493;49.058;12.190;2023-08-06T01:40:53;19.13;;;17.10;;
23676;SDS011;31493;49.058;12.190;2023-08-06T01:43:20;26.48;;;17.77;;
23676;SDS011;31493;49.058;12.190;2023-08-06T01:45:48;21.88;;;18.02;;
23676;SDS011;31493;49.058;12.190;2023-08-06T01:48:15;23.45;;;15.75;;
23676;SDS011;31493;49.058;12.190;2023-08-06T01:50:42;16.63;;;13.60;;
23676;SDS011;31493;49.058;12.190;2023-08-06T01:53:10;14.00;;;11.13;;
23676;SDS011;31493;49.058;12.190;2023-08-06T01:55:37;11.75;;;9.88;;
23676;SDS011;31493;49.058;12.190;2023-08-06T01:58:04;12.70;;;9.63;;
23676;SDS011;31493;49.058;12.190;2023-08-06T02:00:31;9.57;;;7.85;;
23676;SDS011;31493;49.058;12.190;2023-08-06T02:02:58;7.80;;;6.90;;
23676;SDS011;31493;49.058;12.190;2023-08-06T02:05:25;11.32;;;7.45;;
23676;SDS011;31493;49.058;12.190;2023-08-06T02:07:52;9.77;;;7.07;;
23676;SDS011;31493;49.058;12.190;2023-08-06T02:10:21;7.32;;;6.43;;
23676;SDS011;31493;49.058;12.190;2023-08-06T02:12:48;10.05;;;6.63;;
23676;SDS011;31493;49.058;12.190;2023-08-06T02:15:15;8.32;;;6.63;;
23676;SDS011;31493;49.058;12.190;2023-08-06T02:17:42;7.22;;;6.28;;
23676;SDS011;31493;49.058;12.190;2023-08-06T02:20:09;7.63;;;6.28;;
23676;SDS011;31493;49.058;12.190;2023-08-06T02:22:36;7.32;;;6.50;;
23676;SDS011;31493;49.058;12.190;2023-08-06T02:25:04;7.88;;;6.43;;
23676;SDS011;31493;49.058;12.190;2023-08-06T02:27:33;6.50;;;5.90;;
23676;SDS011;31493;49.058;12.190;2023-08-06T02:30:00;5.75;;;4.97;;
23676;SDS011;31493;49.058;12.190;2023-08-06T02:32:28;5.30;;;4.80;;
23676;SDS011;31493;49.058;12.190;2023-08-06T02:37:23;6.85;;;4.65;;
23676;SDS011;31493;49.058;12.190;2023-08-06T02:39:51;5.57;;;4.50;;
23676;SDS011;31493;49.058;12.190;2023-08-06T02:42:18;6.13;;;5.18;;
23676;SDS011;31493;49.058;12.190;2023-08-06T02:44:46;6.68;;;4.18;;
23676;SDS011;31493;49.058;12.190;2023-08-06T02:47:13;5.35;;;4.85;;
23676;SDS011;31493;49.058;12.190;2023-08-06T02:49:40;6.30;;;4.82;;
23676;SDS011;31493;49.058;12.190;2023-08-06T02:52:07;6.15;;;5.13;;
23676;SDS011;31493;49.058;12.190;2023-08-06T02:54:34;7.55;;;4.45;;
23676;SDS011;31493;49.058;12.190;2023-08-06T02:57:01;7.50;;;4.72;;
23676;SDS011;31493;49.058;12.190;2023-08-06T02:59:28;7.80;;;4.55;;
23676;SDS011;31493;49.058;12.190;2023-08-06T03:01:56;6.88;;;4.65;;
23676;SDS011;31493;49.058;12.190;2023-08-06T03:04:23;6.43;;;5.13;;
23676;SDS011;31493;49.058;12.190;2023-08-06T03:06:50;5.85;;;4.78;;
23676;SDS011;31493;49.058;12.190;2023-08-06T03:09:17;5.97;;;4.82;;
23676;SDS011;31493;49.058;12.190;2023-08-06T03:11:44;5.30;;;4.60;;
23676;SDS011;31493;49.058;12.190;2023-08-06T03:14:11;7.10;;;4.55;;
23676;SDS011;31493;49.058;12.190;2023-08-06T03:16:38;8.50;;;4.75;;
23676;SDS011;31493;49.058;12.190;2023-08-06T03:19:07;5.10;;;4.40;;
23676;SDS011;31493;49.058;12.190;2023-08-06T03:21:34;4.60;;;4.20;;
23676;SDS011;31493;49.058;12.190;2023-08-06T03:24:01;4.13;;;3.80;;
23676;SDS011;31493;49.058;12.190;2023-08-06T03:26:28;8.05;;;4.57;;
23676;SDS011;31493;49.058;12.190;2023-08-06T03:28:55;5.20;;;4.30;;
23676;SDS011;31493;49.058;12.190;2023-08-06T03:31:22;4.30;;;3.90;;
23676;SDS011;31493;49.058;12.190;2023-08-06T03:33:49;4.72;;;3.75;;
23676;SDS011;31493;49.058;12.190;2023-08-06T03:36:17;4.70;;;4.22;;
23676;SDS011;31493;49.058;12.190;2023-08-06T03:38:44;6.90;;;4.15;;
23676;SDS011;31493;49.058;12.190;2023-08-06T03:41:11;5.32;;;4.05;;
23676;SDS011;31493;49.058;12.190;2023-08-06T03:43:38;8.07;;;4.10;;
23676;SDS011;31493;49.058;12.190;2023-08-06T03:46:05;6.57;;;3.85;;
23676;SDS011;31493;49.058;12.190;2023-08-06T03:48:32;5.57;;;4.32;;
23676;SDS011;31493;49.058;12.190;2023-08-06T03:50:59;5.30;;;3.92;;
23676;SDS011;31493;49.058;12.190;2023-08-06T03:53:29;9.07;;;4.10;;
23676;SDS011;31493;49.058;12.190;2023-08-06T03:55:56;4.20;;;3.55;;
23676;SDS011;31493;49.058;12.190;2023-08-06T03:58:25;7.43;;;3.83;;
23676;SDS011;31493;49.058;12.190;2023-08-06T04:00:58;4.25;;;3.72;;
23676;SDS011;31493;49.058;12.190;2023-08-06T04:03:26;4.63;;;3.78;;
23676;SDS011;31493;49.058;12.190;2023-08-06T04:05:53;5.13;;;3.58;;
23676;SDS011;31493;49.058;12.190;2023-08-06T04:08:20;5.43;;;3.70;;
23676;SDS011;31493;49.058;12.190;2023-08-06T04:10:50;4.72;;;4.00;;
23676;SDS011;31493;49.058;12.190;2023-08-06T04:13:17;5.25;;;3.42;;
23676;SDS011;31493;49.058;12.190;2023-08-06T04:15:45;4.45;;;3.65;;
23676;SDS011;31493;49.058;12.190;2023-08-06T04:18:13;5.90;;;3.97;;
23676;SDS011;31493;49.058;12.190;2023-08-06T04:20:43;4.97;;;3.60;;
23676;SDS011;31493;49.058;12.190;2023-08-06T04:23:11;5.63;;;4.15;;
23676;SDS011;31493;49.058;12.190;2023-08-06T04:25:38;5.22;;;3.83;;
23676;SDS011;31493;49.058;12.190;2023-08-06T04:28:06;10.02;;;4.10;;
23676;SDS011;31493;49.058;12.190;2023-08-06T04:30:33;6.18;;;3.72;;
23676;SDS011;31493;49.058;12.190;2023-08-06T04:33:00;6.47;;;3.45;;
23676;SDS011;31493;49.058;12.190;2023-08-06T04:35:27;5.28;;;4.15;;
23676;SDS011;31493;49.058;12.190;2023-08-06T04:37:55;6.35;;;3.75;;
23676;SDS011;31493;49.058;12.190;2023-08-06T04:40:22;6.82;;;4.07;;
23676;SDS011;31493;49.058;12.190;2023-08-06T04:42:49;5.50;;;4.18;;
23676;SDS011;31493;49.058;12.190;2023-08-06T04:45:17;4.35;;;3.92;;
23676;SDS011;31493;49.058;12.190;2023-08-06T04:47:44;4.88;;;4.05;;
23676;SDS011;31493;49.058;12.190;2023-08-06T04:50:11;5.30;;;4.18;;
23676;SDS011;31493;49.058;12.190;2023-08-06T04:52:38;6.45;;;4.35;;
23676;SDS011;31493;49.058;12.190;2023-08-06T04:55:05;6.15;;;3.65;;
23676;SDS011;31493;49.058;12.190;2023-08-06T04:57:32;4.82;;;4.10;;
23676;SDS011;31493;49.058;12.190;2023-08-06T05:00:00;4.72;;;3.80;;
23676;SDS011;31493;49.058;12.190;2023-08-06T05:02:29;6.88;;;4.20;;
23676;SDS011;31493;49.058;12.190;2023-08-06T05:04:57;5.20;;;3.90;;
23676;SDS011;31493;49.058;12.190;2023-08-06T05:07:24;6.68;;;4.50;;
23676;SDS011;31493;49.058;12.190;2023-08-06T05:09:51;4.25;;;3.85;;
23676;SDS011;31493;49.058;12.190;2023-08-06T05:12:19;5.88;;;4.30;;
23676;SDS011;31493;49.058;12.190;2023-08-06T05:14:46;8.57;;;3.78;;
23676;SDS011;31493;49.058;12.190;2023-08-06T05:17:13;6.13;;;3.75;;
23676;SDS011;31493;49.058;12.190;2023-08-06T05:19:41;5.38;;;3.70;;
23676;SDS011;31493;49.058;12.190;2023-08-06T05:22:08;8.20;;;3.95;;
23676;SDS011;31493;49.058;12.190;2023-08-06T05:24:35;6.13;;;3.72;;
23676;SDS011;31493;49.058;12.190;2023-08-06T05:27:03;5.35;;;4.05;;
23676;SDS011;31493;49.058;12.190;2023-08-06T05:29:30;8.40;;;4.13;;
23676;SDS011;31493;49.058;12.190;2023-08-06T05:31:57;4.40;;;3.83;;
23676;SDS011;31493;49.058;12.190;2023-08-06T05:34:24;4.72;;;3.30;;
23676;SDS011;31493;49.058;12.190;2023-08-06T05:36:53;4.50;;;3.70;;
23676;SDS011;31493;49.058;12.190;2023-08-06T05:39:20;4.60;;;3.50;;
23676;SDS011;31493;49.058;12.190;2023-08-06T05:41:47;8.15;;;4.18;;
23676;SDS011;31493;49.058;12.190;2023-08-06T05:44:14;4.18;;;3.40;;
23676;SDS011;31493;49.058;12.190;2023-08-06T05:46:41;5.45;;;3.05;;
23676;SDS011;31493;49.058;12.190;2023-08-06T05:49:08;3.47;;;3.15;;
23676;SDS011;31493;49.058;12.190;2023-08-06T05:51:35;5.32;;;3.35;;
23676;SDS011;31493;49.058;12.190;2023-08-06T05:54:04;5.50;;;3.70;;
23676;SDS011;31493;49.058;12.190;2023-08-06T05:56:31;4.32;;;3.72;;
23676;SDS011;31493;49.058;12.190;2023-08-06T05:58:58;4.50;;;3.10;;
23676;SDS011;31493;49.058;12.190;2023-08-06T06:01:25;3.60;;;3.30;;
23676;SDS011;31493;49.058;12.190;2023-08-06T06:03:52;8.52;;;3.80;;
23676;SDS011;31493;49.058;12.190;2023-08-06T06:06:19;3.60;;;3.25;;
23676;SDS011;31493;49.058;12.190;2023-08-06T06:08:46;3.95;;;3.55;;
23676;SDS011;31493;49.058;12.190;2023-08-06T06:11:14;4.28;;;3.00;;
23676;SDS011;31493;49.058;12.190;2023-08-06T06:13:41;3.97;;;2.90;;
23676;SDS011;31493;49.058;12.190;2023-08-06T06:16:08;5.53;;;2.92;;
23676;SDS011;31493;49.058;12.190;2023-08-06T06:18:35;3.28;;;2.80;;
23676;SDS011;31493;49.058;12.190;2023-08-06T06:21:02;3.35;;;2.65;;
23676;SDS011;31493;49.058;12.190;2023-08-06T06:23:30;4.05;;;3.20;;
23676;SDS011;31493;49.058;12.190;2023-08-06T06:25:57;6.88;;;2.83;;
23676;SDS011;31493;49.058;12.190;2023-08-06T06:28:26;4.35;;;2.95;;
23676;SDS011;31493;49.058;12.190;2023-08-06T06:30:53;6.63;;;3.15;;
23676;SDS011;31493;49.058;12.190;2023-08-06T06:33:20;3.17;;;2.88;;
23676;SDS011;31493;49.058;12.190;2023-08-06T06:35:47;3.67;;;3.25;;
23676;SDS011;31493;49.058;12.190;2023-08-06T06:38:14;3.88;;;2.85;;
23676;SDS011;31493;49.058;12.190;2023-08-06T06:40:41;4.55;;;3.35;;
23676;SDS011;31493;49.058;12.190;2023-08-06T06:43:08;4.47;;;3.35;;
23676;SDS011;31493;49.058;12.190;2023-08-06T06:45:36;3.85;;;3.22;;
23676;SDS011;31493;49.058;12.190;2023-08-06T06:48:05;4.80;;;3.15;;
23676;SDS011;31493;49.058;12.190;2023-08-06T06:50:32;5.13;;;3.58;;
23676;SDS011;31493;49.058;12.190;2023-08-06T06:52:59;4.68;;;3.67;;
23676;SDS011;31493;49.058;12.190;2023-08-06T06:55:26;4.55;;;4.15;;
23676;SDS011;31493;49.058;12.190;2023-08-06T06:57:53;4.45;;;4.03;;
23676;SDS011;31493;49.058;12.190;2023-08-06T07:00:20;5.25;;;3.88;;
23676;SDS011;31493;49.058;12.190;2023-08-06T07:02:49;5.50;;;4.65;;
23676;SDS011;31493;49.058;12.190;2023-08-06T07:05:17;5.10;;;4.60;;
23676;SDS011;31493;49.058;12.190;2023-08-06T07:07:44;5.43;;;4.82;;
23676;SDS011;31493;49.058;12.190;2023-08-06T07:10:11;5.50;;;5.00;;
23676;SDS011;31493;49.058;12.190;2023-08-06T07:12:38;5.57;;;4.32;;
23676;SDS011;31493;49.058;12.190;2023-08-06T07:15:06;4.80;;;4.30;;
23676;SDS011;31493;49.058;12.190;2023-08-06T07:17:33;8.20;;;5.30;;
23676;SDS011;31493;49.058;12.190;2023-08-06T07:20:02;6.78;;;4.38;;
23676;SDS011;31493;49.058;12.190;2023-08-06T07:22:30;9.75;;;4.60;;
23676;SDS011;31493;49.058;12.190;2023-08-06T07:24:57;5.97;;;4.80;;
23676;SDS011;31493;49.058;12.190;2023-08-06T07:27:24;5.63;;;4.10;;
23676;SDS011;31493;49.058;12.190;2023-08-06T07:29:52;6.43;;;4.40;;
23676;SDS011;31493;49.058;12.190;2023-08-06T07:32:19;8.85;;;3.88;;
23676;SDS011;31493;49.058;12.190;2023-08-06T07:34:46;4.95;;;4.13;;
23676;SDS011;31493;49.058;12.190;2023-08-06T07:37:14;5.47;;;3.70;;
23676;SDS011;31493;49.058;12.190;2023-08-06T07:39:41;4.70;;;3.50;;
23676;SDS011;31493;49.058;12.190;2023-08-06T07:42:08;4.80;;;3.90;;
23676;SDS011;31493;49.058;12.190;2023-08-06T07:44:37;8.27;;;3.78;;
23676;SDS011;31493;49.058;12.190;2023-08-06T07:47:05;4.63;;;3.35;;
23676;SDS011;31493;49.058;12.190;2023-08-06T07:49:32;6.03;;;3.40;;
23676;SDS011;31493;49.058;12.190;2023-08-06T07:51:59;5.78;;;3.45;;
23676;SDS011;31493;49.058;12.190;2023-08-06T07:54:28;4.28;;;3.10;;
23676;SDS011;31493;49.058;12.190;2023-08-06T07:56:55;5.63;;;3.22;;
23676;SDS011;31493;49.058;12.190;2023-08-06T07:59:22;6.05;;;3.30;;
23676;SDS011;31493;49.058;12.190;2023-08-06T08:01:49;3.45;;;2.80;;
23676;SDS011;31493;49.058;12.190;2023-08-06T08:04:16;4.40;;;2.40;;
23676;SDS011;31493;49.058;12.190;2023-08-06T08:06:43;4.85;;;2.78;;
23676;SDS011;31493;49.058;12.190;2023-08-06T08:09:10;4.20;;;2.60;;
23676;SDS011;31493;49.058;12.190;2023-08-06T08:11:40;6.38;;;2.35;;
23676;SDS011;31493;49.058;12.190;2023-08-06T08:14:07;7.38;;;2.38;;
23676;SDS011;31493;49.058;12.190;2023-08-06T08:16:35;6.80;;;2.60;;
23676;SDS011;31493;49.058;12.190;2023-08-06T08:19:03;3.05;;;2.03;;
23676;SDS011;31493;49.058;12.190;2023-08-06T08:21:30;4.37;;;2.17;;
23676;SDS011;31493;49.058;12.190;2023-08-06T08:23:58;3.35;;;2.28;;
23676;SDS011;31493;49.058;12.190;2023-08-06T08:26:26;2.75;;;1.90;;
23676;SDS011;31493;49.058;12.190;2023-08-06T08:28:55;5.75;;;2.00;;
23676;SDS011;31493;49.058;12.190;2023-08-06T08:31:23;3.45;;;1.90;;
23676;SDS011;31493;49.058;12.190;2023-08-06T08:33:50;3.35;;;1.60;;
23676;SDS011;31493;49.058;12.190;2023-08-06T08:36:17;3.65;;;1.75;;
23676;SDS011;31493;49.058;12.190;2023-08-06T08:38:44;2.67;;;1.42;;
23676;SDS011;31493;49.058;12.190;2023-08-06T08:41:11;3.22;;;1.73;;
23676;SDS011;31493;49.058;12.190;2023-08-06T08:43:38;3.08;;;1.65;;
23676;SDS011;31493;49.058;12.190;2023-08-06T08:46:09;3.70;;;1.58;;
23676;SDS011;31493;49.058;12.190;2023-08-06T08:48:38;2.90;;;1.65;;
23676;SDS011;31493;49.058;12.190;2023-08-06T08:51:05;3.42;;;1.75;;
23676;SDS011;31493;49.058;12.190;2023-08-06T08:53:33;6.47;;;3.20;;
23676;SDS011;31493;49.058;12.190;2023-08-06T08:56:03;4.68;;;1.85;;
23676;SDS011;31493;49.058;12.190;2023-08-06T08:58:32;4.00;;;1.80;;
23676;SDS011;31493;49.058;12.190;2023-08-06T09:00:59;6.30;;;1.63;;
23676;SDS011;31493;49.058;12.190;2023-08-06T09:03:28;3.78;;;1.65;;
23676;SDS011;31493;49.058;12.190;2023-08-06T09:05:55;2.15;;;1.58;;
23676;SDS011;31493;49.058;12.190;2023-08-06T09:08:27;14.70;;;2.35;;
23676;SDS011;31493;49.058;12.190;2023-08-06T09:10:57;5.50;;;2.03;;
23676;SDS011;31493;49.058;12.190;2023-08-06T09:13:24;4.38;;;2.10;;
23676;SDS011;31493;49.058;12.190;2023-08-06T09:15:51;3.40;;;2.10;;
23676;SDS011;31493;49.058;12.190;2023-08-06T09:18:24;6.43;;;2.30;;
23676;SDS011;31493;49.058;12.190;2023-08-06T09:20:54;3.00;;;2.00;;
23676;SDS011;31493;49.058;12.190;2023-08-06T09:23:21;3.47;;;2.03;;
23676;SDS011;31493;49.058;12.190;2023-08-06T09:25:55;4.93;;;2.40;;
23676;SDS011;31493;49.058;12.190;2023-08-06T09:28:22;5.68;;;2.45;;
23676;SDS011;31493;49.058;12.190;2023-08-06T09:30:50;7.32;;;2.40;;
23676;SDS011;31493;49.058;12.190;2023-08-06T09:33:21;5.13;;;2.40;;
23676;SDS011;31493;49.058;12.190;2023-08-06T09:35:49;4.18;;;2.45;;
23676;SDS011;31493;49.058;12.190;2023-08-06T09:38:17;5.70;;;2.28;;
23676;SDS011;31493;49.058;12.190;2023-08-06T09:40:44;4.43;;;2.30;;
23676;SDS011;31493;49.058;12.190;2023-08-06T09:43:11;3.30;;;2.15;;
23676;SDS011;31493;49.058;12.190;2023-08-06T09:45:39;4.82;;;2.15;;
23676;SDS011;31493;49.058;12.190;2023-08-06T09:48:07;5.70;;;1.83;;
23676;SDS011;31493;49.058;12.190;2023-08-06T09:50:35;3.83;;;1.70;;
23676;SDS011;31493;49.058;12.190;2023-08-06T09:53:05;3.60;;;1.70;;
23676;SDS011;31493;49.058;12.190;2023-08-06T09:55:34;3.67;;;1.70;;
23676;SDS011;31493;49.058;12.190;2023-08-06T09:58:01;3.00;;;1.58;;
23676;SDS011;31493;49.058;12.190;2023-08-06T10:00:29;2.28;;;1.10;;
23676;SDS011;31493;49.058;12.190;2023-08-06T10:02:59;4.45;;;1.10;;
23676;SDS011;31493;49.058;12.190;2023-08-06T10:05:26;3.42;;;1.20;;
23676;SDS011;31493;49.058;12.190;2023-08-06T10:07:54;2.10;;;1.20;;
23676;SDS011;31493;49.058;12.190;2023-08-06T10:10:23;5.75;;;1.23;;
23676;SDS011;31493;49.058;12.190;2023-08-06T10:12:54;1.25;;;1.00;;
23676;SDS011;31493;49.058;12.190;2023-08-06T10:15:25;1.98;;;1.02;;
23676;SDS011;31493;49.058;12.190;2023-08-06T10:17:54;2.72;;;0.85;;
23676;SDS011;31493;49.058;12.190;2023-08-06T10:20:23;2.50;;;1.10;;
23676;SDS011;31493;49.058;12.190;2023-08-06T10:23:00;1.25;;;0.95;;
23676;SDS011;31493;49.058;12.190;2023-08-06T10:25:30;2.03;;;1.10;;
23676;SDS011;31493;49.058;12.190;2023-08-06T10:28:00;1.73;;;1.20;;
23676;SDS011;31493;49.058;12.190;2023-08-06T10:30:28;3.17;;;1.08;;
23676;SDS011;31493;49.058;12.190;2023-08-06T10:32:57;2.03;;;1.23;;
23676;SDS011;31493;49.058;12.190;2023-08-06T10:35:34;1.23;;;1.00;;
23676;SDS011;31493;49.058;12.190;2023-08-06T10:38:05;3.22;;;1.08;;
23676;SDS011;31493;49.058;12.190;2023-08-06T10:40:35;1.85;;;1.17;;
23676;SDS011;31493;49.058;12.190;2023-08-06T10:43:04;0.70;;;0.50;;
23676;SDS011;31493;49.058;12.190;2023-08-06T10:45:36;1.02;;;0.70;;
23676;SDS011;31493;49.058;12.190;2023-08-06T10:48:05;2.30;;;0.60;;
23676;SDS011;31493;49.058;12.190;2023-08-06T10:50:32;1.23;;;0.68;;
23676;SDS011;31493;49.058;12.190;2023-08-06T10:53:03;2.13;;;0.70;;
23676;SDS011;31493;49.058;12.190;2023-08-06T10:55:31;2.00;;;0.73;;
23676;SDS011;31493;49.058;12.190;2023-08-06T10:57:59;1.50;;;0.60;;
23676;SDS011;31493;49.058;12.190;2023-08-06T11:00:27;1.10;;;0.70;;
23676;SDS011;31493;49.058;12.190;2023-08-06T11:02:54;1.50;;;0.82;;
23676;SDS011;31493;49.058;12.190;2023-08-06T11:05:21;1.40;;;0.82;;
23676;SDS011;31493;49.058;12.190;2023-08-06T11:07:49;2.17;;;0.80;;
23676;SDS011;31493;49.058;12.190;2023-08-06T11:10:18;1.67;;;0.75;;
23676;SDS011;31493;49.058;12.190;2023-08-06T11:12:45;4.60;;;1.17;;
23676;SDS011;31493;49.058;12.190;2023-08-06T11:15:12;1.25;;;0.75;;
23676;SDS011;31493;49.058;12.190;2023-08-06T11:17:40;2.25;;;0.85;;
23676;SDS011;31493;49.058;12.190;2023-08-06T11:20:08;2.78;;;0.68;;
23676;SDS011;31493;49.058;12.190;2023-08-06T11:22:36;1.90;;;0.82;;
23676;SDS011;31493;49.058;12.190;2023-08-06T11:25:05;1.95;;;0.90;;
23676;SDS011;31493;49.058;12.190;2023-08-06T11:27:33;1.25;;;0.70;;
23676;SDS011;31493;49.058;12.190;2023-08-06T11:30:00;1.45;;;0.93;;
23676;SDS011;31493;49.058;12.190;2023-08-06T11:32:27;3.53;;;0.80;;
23676;SDS011;31493;49.058;12.190;2023-08-06T11:34:55;1.27;;;0.80;;
23676;SDS011;31493;49.058;12.190;2023-08-06T11:37:23;1.65;;;0.75;;
23676;SDS011;31493;49.058;12.190;2023-08-06T11:39:51;1.40;;;0.90;;
23676;SDS011;31493;49.058;12.190;2023-08-06T11:42:18;1.85;;;1.08;;
23676;SDS011;31493;49.058;12.190;2023-08-06T11:44:46;1.77;;;0.82;;
23676;SDS011;31493;49.058;12.190;2023-08-06T11:47:14;3.47;;;0.60;;
23676;SDS011;31493;49.058;12.190;2023-08-06T11:49:43;2.67;;;0.90;;
23676;SDS011;31493;49.058;12.190;2023-08-06T11:52:15;0.95;;;0.70;;
23676;SDS011;31493;49.058;12.190;2023-08-06T11:54:44;0.73;;;0.60;;
23676;SDS011;31493;49.058;12.190;2023-08-06T11:57:11;1.55;;;0.50;;
23676;SDS011;31493;49.058;12.190;2023-08-06T11:59:39;1.05;;;0.50;;
23676;SDS011;31493;49.058;12.190;2023-08-06T12:02:08;1.98;;;0.70;;
23676;SDS011;31493;49.058;12.190;2023-08-06T12:07:31;0.93;;;0.50;;
23676;SDS011;31493;49.058;12.190;2023-08-06T12:09:59;0.50;;;0.50;;
23676;SDS011;31493;49.058;12.190;2023-08-06T12:12:26;0.75;;;0.50;;
23676;SDS011;31493;49.058;12.190;2023-08-06T12:14:54;0.63;;;0.40;;
23676;SDS011;31493;49.058;12.190;2023-08-06T12:17:21;0.90;;;0.40;;
23676;SDS011;31493;49.058;12.190;2023-08-06T12:19:48;0.60;;;0.52;;
23676;SDS011;31493;49.058;12.190;2023-08-06T12:22:16;0.63;;;0.30;;
23676;SDS011;31493;49.058;12.190;2023-08-06T12:24:45;1.25;;;0.57;;
23676;SDS011;31493;49.058;12.190;2023-08-06T12:27:13;2.25;;;0.40;;
23676;SDS011;31493;49.058;12.190;2023-08-06T12:29:40;0.40;;;0.30;;
23676;SDS011;31493;49.058;12.190;2023-08-06T12:32:09;1.10;;;0.35;;
23676;SDS011;31493;49.058;12.190;2023-08-06T12:34:37;0.20;;;0.20;;
23676;SDS011;31493;49.058;12.190;2023-08-06T12:37:05;0.28;;;0.20;;
23676;SDS011;31493;49.058;12.190;2023-08-06T12:39:32;0.30;;;0.30;;
23676;SDS011;31493;49.058;12.190;2023-08-06T12:42:01;2.63;;;0.30;;
23676;SDS011;31493;49.058;12.190;2023-08-06T12:44:29;0.38;;;0.30;;
23676;SDS011;31493;49.058;12.190;2023-08-06T12:46:57;0.65;;;0.20;;
23676;SDS011;31493;49.058;12.190;2023-08-06T12:49:24;0.75;;;0.20;;
23676;SDS011;31493;49.058;12.190;2023-08-06T12:51:52;0.40;;;0.33;;
23676;SDS011;31493;49.058;12.190;2023-08-06T12:54:20;0.60;;;0.20;;
23676;SDS011;31493;49.058;12.190;2023-08-06T12:56:47;0.82;;;0.40;;
23676;SDS011;31493;49.058;12.190;2023-08-06T12:59:17;1.60;;;0.40;;
23676;SDS011;31493;49.058;12.190;2023-08-06T13:04:11;0.85;;;0.60;;
23676;SDS011;31493;49.058;12.190;2023-08-06T13:06:39;1.95;;;0.30;;
23676;SDS011;31493;49.058;12.190;2023-08-06T13:09:06;1.98;;;0.38;;
23676;SDS011;31493;49.058;12.190;2023-08-06T13:11:34;1.52;;;0.35;;
23676;SDS011;31493;49.058;12.190;2023-08-06T13:14:05;1.95;;;0.30;;
23676;SDS011;31493;49.058;12.190;2023-08-06T13:16:34;1.35;;;0.20;;
23676;SDS011;31493;49.058;12.190;2023-08-06T13:19:02;1.35;;;0.28;;
23676;SDS011;31493;49.058;12.190;2023-08-06T13:21:31;2.38;;;0.47;;
23676;SDS011;31493;49.058;12.190;2023-08-06T13:23:59;2.72;;;0.40;;
23676;SDS011;31493;49.058;12.190;2023-08-06T13:26:27;1.25;;;0.20;;
23676;SDS011;31493;49.058;12.190;2023-08-06T13:28:54;0.47;;;0.20;;
23676;SDS011;31493;49.058;12.190;2023-08-06T13:31:24;0.60;;;0.20;;
23676;SDS011;31493;49.058;12.190;2023-08-06T13:33:54;0.20;;;0.20;;
23676;SDS011;31493;49.058;12.190;2023-08-06T13:36:23;1.05;;;0.32;;
23676;SDS011;31493;49.058;12.190;2023-08-06T13:38:51;0.88;;;0.20;;
23676;SDS011;31493;49.058;12.190;2023-08-06T13:41:18;0.10;;;0.10;;
23676;SDS011;31493;49.058;12.190;2023-08-06T13:43:45;0.65;;;0.30;;
23676;SDS011;31493;49.058;12.190;2023-08-06T13:46:12;0.30;;;0.13;;
23676;SDS011;31493;49.058;12.190;2023-08-06T13:48:42;0.20;;;0.20;;
23676;SDS011;31493;49.058;12.190;2023-08-06T13:51:11;0.47;;;0.25;;
23676;SDS011;31493;49.058;12.190;2023-08-06T13:53:38;3.47;;;0.40;;
23676;SDS011;31493;49.058;12.190;2023-08-06T13:56:05;0.80;;;0.30;;
23676;SDS011;31493;49.058;12.190;2023-08-06T13:58:35;0.68;;;0.30;;
23676;SDS011;31493;49.058;12.190;2023-08-06T14:01:02;0.60;;;0.30;;
23676;SDS011;31493;49.058;12.190;2023-08-06T14:03:29;0.45;;;0.25;;
23676;SDS011;31493;49.058;12.190;2023-08-06T14:05:56;0.50;;;0.10;;
23676;SDS011;31493;49.058;12.190;2023-08-06T14:08:25;0.90;;;0.17;;
23676;SDS011;31493;49.058;12.190;2023-08-06T14:10:52;0.88;;;0.22;;
23676;SDS011;31493;49.058;12.190;2023-08-06T14:13:20;2.42;;;0.30;;
23676;SDS011;31493;49.058;12.190;2023-08-06T14:15:48;0.10;;;0.10;;
23676;SDS011;31493;49.058;12.190;2023-08-06T14:18:15;0.32;;;0.20;;
23676;SDS011;31493;49.058;12.190;2023-08-06T14:20:43;1.17;;;0.30;;
23676;SDS011;31493;49.058;12.190;2023-08-06T14:23:10;1.55;;;0.13;;
23676;SDS011;31493;49.058;12.190;2023-08-06T14:25:39;0.40;;;0.10;;
23676;SDS011;31493;49.058;12.190;2023-08-06T14:28:06;2.95;;;0.55;;
23676;SDS011;31493;49.058;12.190;2023-08-06T14:30:33;1.90;;;0.50;;
23676;SDS011;31493;49.058;12.190;2023-08-06T14:33:00;0.40;;;0.22;;
23676;SDS011;31493;49.058;12.190;2023-08-06T14:35:28;1.27;;;0.30;;
23676;SDS011;31493;49.058;12.190;2023-08-06T14:37:55;1.00;;;0.20;;
23676;SDS011;31493;49.058;12.190;2023-08-06T14:40:23;0.10;;;0.10;;
23676;SDS011;31493;49.058;12.190;2023-08-06T14:42:53;0.43;;;0.10;;